sensor_id;sensor_type;location;lat;lon;timestamp;temperature;humidity
15341;DHT22;7770;52.158;5.372;2022-12-29T00:00:04;10.70;99.90
15341;DHT22;7770;52.158;5.372;2022-12-29T00:02:50;10.70;99.90
15341;DHT22;7770;52.158;5.372;2022-12-29T00:05:36;10.70;99.90
15341;DHT22;7770;52.158;5.372;2022-12-29T00:08:22;10.80;99.90
15341;DHT22;7770;52.158;5.372;2022-12-29T00:11:26;10.80;99.90
15341;DHT22;7770;52.158;5.372;2022-12-29T00:14:13;10.80;99.90
15341;DHT22;7770;52.158;5.372;2022-12-29T00:17:18;10.80;99.90
15341;DHT22;7770;52.158;5.372;2022-12-29T00:20:04;10.80;99.90
15341;DHT22;7770;52.158;5.372;2022-12-29T00:23:09;10.90;99.90
15341;DHT22;7770;52.158;5.372;2022-12-29T00:26:16;10.90;99.90
15341;DHT22;7770;52.158;5.372;2022-12-29T00:29:21;10.90;99.90
15341;DHT22;7770;52.158;5.372;2022-12-29T00:32:25;10.90;99.90
15341;DHT22;7770;52.158;5.372;2022-12-29T00:35:35;11.00;99.90
15341;DHT22;7770;52.158;5.372;2022-12-29T00:38:31;11.00;99.90
15341;DHT22;7770;52.158;5.372;2022-12-29T00:41:37;11.10;99.90
15341;DHT22;7770;52.158;5.372;2022-12-29T00:44:41;11.10;99.90
15341;DHT22;7770;52.158;5.372;2022-12-29T00:47:27;11.10;99.90
15341;DHT22;7770;52.158;5.372;2022-12-29T00:50:13;11.10;99.90
15341;DHT22;7770;52.158;5.372;2022-12-29T00:52:59;11.10;99.90
15341;DHT22;7770;52.158;5.372;2022-12-29T00:55:45;11.10;99.90
15341;DHT22;7770;52.158;5.372;2022-12-29T00:58:31;11.10;99.90
15341;DHT22;7770;52.158;5.372;2022-12-29T01:01:17;11.10;99.90
15341;DHT22;7770;52.158;5.372;2022-12-29T01:04:04;11.00;99.90
15341;DHT22;7770;52.158;5.372;2022-12-29T01:06:51;11.00;99.90
15341;DHT22;7770;52.158;5.372;2022-12-29T01:09:38;11.00;99.90
15341;DHT22;7770;52.158;5.372;2022-12-29T01:12:42;11.00;99.90
15341;DHT22;7770;52.158;5.372;2022-12-29T01:15:30;11.00;99.90
15341;DHT22;7770;52.158;5.372;2022-12-29T01:18:16;11.00;99.90
15341;DHT22;7770;52.158;5.372;2022-12-29T01:21:04;10.90;99.90
15341;DHT22;7770;52.158;5.372;2022-12-29T01:23:51;10.90;99.90
15341;DHT22;7770;52.158;5.372;2022-12-29T01:26:37;10.80;99.90
15341;DHT22;7770;52.158;5.372;2022-12-29T01:29:23;10.70;99.90
15341;DHT22;7770;52.158;5.372;2022-12-29T01:32:09;10.60;99.90
15341;DHT22;7770;52.158;5.372;2022-12-29T01:34:55;10.50;99.90
15341;DHT22;7770;52.158;5.372;2022-12-29T01:37:41;10.40;99.90
15341;DHT22;7770;52.158;5.372;2022-12-29T01:40:27;10.40;99.90
15341;DHT22;7770;52.158;5.372;2022-12-29T01:43:14;10.30;99.90
15341;DHT22;7770;52.158;5.372;2022-12-29T01:46:00;10.30;99.90
15341;DHT22;7770;52.158;5.372;2022-12-29T01:48:49;10.30;99.90
15341;DHT22;7770;52.158;5.372;2022-12-29T01:52:04;10.30;99.90
15341;DHT22;7770;52.158;5.372;2022-12-29T01:54:53;10.30;99.90
15341;DHT22;7770;52.158;5.372;2022-12-29T01:57:44;10.30;99.90
15341;DHT22;7770;52.158;5.372;2022-12-29T02:00:32;10.30;99.90
15341;DHT22;7770;52.158;5.372;2022-12-29T02:03:20;10.30;99.90
15341;DHT22;7770;52.158;5.372;2022-12-29T02:06:12;10.40;99.90
15341;DHT22;7770;52.158;5.372;2022-12-29T02:09:02;10.40;99.90
15341;DHT22;7770;52.158;5.372;2022-12-29T02:11:48;10.40;99.90
15341;DHT22;7770;52.158;5.372;2022-12-29T02:14:34;10.40;99.90
15341;DHT22;7770;52.158;5.372;2022-12-29T02:20:59;10.40;99.90
15341;DHT22;7770;52.158;5.372;2022-12-29T02:24:13;10.40;99.90
15341;DHT22;7770;52.158;5.372;2022-12-29T02:43:39;10.30;99.90
15341;DHT22;7770;52.158;5.372;2022-12-29T02:46:58;10.30;99.90
15341;DHT22;7770;52.158;5.372;2022-12-29T02:50:05;10.30;99.90
15341;DHT22;7770;52.158;5.372;2022-12-29T02:52:58;10.40;99.90
15341;DHT22;7770;52.158;5.372;2022-12-29T02:55:49;10.40;99.90
15341;DHT22;7770;52.158;5.372;2022-12-29T02:58:35;10.50;99.90
15341;DHT22;7770;52.158;5.372;2022-12-29T03:01:50;10.50;99.90
15341;DHT22;7770;52.158;5.372;2022-12-29T03:11:12;10.50;99.90
15341;DHT22;7770;52.158;5.372;2022-12-29T03:14:27;10.50;99.90
15341;DHT22;7770;52.158;5.372;2022-12-29T03:17:40;10.50;99.90
15341;DHT22;7770;52.158;5.372;2022-12-29T03:20:41;10.50;99.90
15341;DHT22;7770;52.158;5.372;2022-12-29T03:23:39;10.50;99.90
15341;DHT22;7770;52.158;5.372;2022-12-29T03:26:27;10.40;99.90
15341;DHT22;7770;52.158;5.372;2022-12-29T03:29:14;10.40;99.90
15341;DHT22;7770;52.158;5.372;2022-12-29T03:32:03;10.30;99.90
15341;DHT22;7770;52.158;5.372;2022-12-29T03:34:50;10.30;99.90
15341;DHT22;7770;52.158;5.372;2022-12-29T03:37:45;10.10;99.90
15341;DHT22;7770;52.158;5.372;2022-12-29T03:40:37;10.10;99.90
15341;DHT22;7770;52.158;5.372;2022-12-29T03:43:24;10.00;99.90
15341;DHT22;7770;52.158;5.372;2022-12-29T03:46:11;10.00;99.90
15341;DHT22;7770;52.158;5.372;2022-12-29T03:48:57;10.10;99.90
15341;DHT22;7770;52.158;5.372;2022-12-29T03:51:43;10.10;99.90
15341;DHT22;7770;52.158;5.372;2022-12-29T03:54:30;10.10;99.90
15341;DHT22;7770;52.158;5.372;2022-12-29T03:57:16;10.10;99.90
15341;DHT22;7770;52.158;5.372;2022-12-29T04:00:05;10.00;99.90
15341;DHT22;7770;52.158;5.372;2022-12-29T04:02:51;9.90;99.90
15341;DHT22;7770;52.158;5.372;2022-12-29T04:05:37;9.90;99.90
15341;DHT22;7770;52.158;5.372;2022-12-29T04:08:23;9.90;99.90
15341;DHT22;7770;52.158;5.372;2022-12-29T04:11:09;9.80;99.90
15341;DHT22;7770;52.158;5.372;2022-12-29T04:13:55;9.80;99.90
15341;DHT22;7770;52.158;5.372;2022-12-29T04:16:41;9.80;99.90
15341;DHT22;7770;52.158;5.372;2022-12-29T04:19:27;9.80;99.90
15341;DHT22;7770;52.158;5.372;2022-12-29T04:22:13;9.80;99.90
15341;DHT22;7770;52.158;5.372;2022-12-29T04:24:59;9.80;99.90
15341;DHT22;7770;52.158;5.372;2022-12-29T04:27:45;9.90;99.90
15341;DHT22;7770;52.158;5.372;2022-12-29T04:30:31;9.90;99.90
15341;DHT22;7770;52.158;5.372;2022-12-29T04:33:18;9.90;99.90
15341;DHT22;7770;52.158;5.372;2022-12-29T04:36:04;9.80;99.90
15341;DHT22;7770;52.158;5.372;2022-12-29T04:38:50;9.80;99.90
15341;DHT22;7770;52.158;5.372;2022-12-29T04:41:36;9.90;99.90
15341;DHT22;7770;52.158;5.372;2022-12-29T04:44:22;10.00;99.90
15341;DHT22;7770;52.158;5.372;2022-12-29T04:47:08;10.00;99.90
15341;DHT22;7770;52.158;5.372;2022-12-29T04:49:54;10.10;99.90
15341;DHT22;7770;52.158;5.372;2022-12-29T04:52:40;10.10;99.90
15341;DHT22;7770;52.158;5.372;2022-12-29T04:55:26;10.20;99.90
15341;DHT22;7770;52.158;5.372;2022-12-29T04:58:12;10.20;99.90
15341;DHT22;7770;52.158;5.372;2022-12-29T05:00:58;10.10;99.90
15341;DHT22;7770;52.158;5.372;2022-12-29T05:03:44;10.10;99.90
15341;DHT22;7770;52.158;5.372;2022-12-29T05:06:30;10.00;99.90
15341;DHT22;7770;52.158;5.372;2022-12-29T05:09:16;10.00;99.90
15341;DHT22;7770;52.158;5.372;2022-12-29T05:12:02;10.00;99.90
15341;DHT22;7770;52.158;5.372;2022-12-29T05:14:49;9.90;99.90
15341;DHT22;7770;52.158;5.372;2022-12-29T05:17:35;9.90;99.90
15341;DHT22;7770;52.158;5.372;2022-12-29T05:20:21;9.90;99.90
15341;DHT22;7770;52.158;5.372;2022-12-29T05:23:07;9.90;99.90
15341;DHT22;7770;52.158;5.372;2022-12-29T05:25:53;10.00;99.90
15341;DHT22;7770;52.158;5.372;2022-12-29T05:28:39;9.90;99.90
15341;DHT22;7770;52.158;5.372;2022-12-29T05:31:25;10.00;99.90
15341;DHT22;7770;52.158;5.372;2022-12-29T05:34:12;10.00;99.90
15341;DHT22;7770;52.158;5.372;2022-12-29T05:36:58;10.00;99.90
15341;DHT22;7770;52.158;5.372;2022-12-29T05:39:44;9.90;99.90
15341;DHT22;7770;52.158;5.372;2022-12-29T05:42:30;10.00;99.90
15341;DHT22;7770;52.158;5.372;2022-12-29T05:45:16;9.90;99.90
15341;DHT22;7770;52.158;5.372;2022-12-29T05:48:02;9.80;99.90
15341;DHT22;7770;52.158;5.372;2022-12-29T05:50:50;9.80;99.90
15341;DHT22;7770;52.158;5.372;2022-12-29T05:53:36;9.80;99.90
15341;DHT22;7770;52.158;5.372;2022-12-29T05:56:22;9.70;99.90
15341;DHT22;7770;52.158;5.372;2022-12-29T05:59:08;9.70;99.90
15341;DHT22;7770;52.158;5.372;2022-12-29T06:01:54;9.70;99.90
15341;DHT22;7770;52.158;5.372;2022-12-29T06:04:40;9.70;99.90
15341;DHT22;7770;52.158;5.372;2022-12-29T06:07:26;9.70;99.90
15341;DHT22;7770;52.158;5.372;2022-12-29T06:10:12;9.70;99.90
15341;DHT22;7770;52.158;5.372;2022-12-29T06:12:58;9.70;99.90
15341;DHT22;7770;52.158;5.372;2022-12-29T06:15:44;9.70;99.90
15341;DHT22;7770;52.158;5.372;2022-12-29T06:18:30;9.70;99.90
15341;DHT22;7770;52.158;5.372;2022-12-29T06:21:16;9.70;99.90
15341;DHT22;7770;52.158;5.372;2022-12-29T06:24:03;9.70;99.90
15341;DHT22;7770;52.158;5.372;2022-12-29T06:26:50;9.60;99.90
15341;DHT22;7770;52.158;5.372;2022-12-29T06:29:36;9.60;99.90
15341;DHT22;7770;52.158;5.372;2022-12-29T06:32:22;9.60;99.90
15341;DHT22;7770;52.158;5.372;2022-12-29T06:35:09;9.50;99.90
15341;DHT22;7770;52.158;5.372;2022-12-29T06:37:55;9.50;99.90
15341;DHT22;7770;52.158;5.372;2022-12-29T06:40:42;9.40;99.90
15341;DHT22;7770;52.158;5.372;2022-12-29T06:43:30;9.30;99.90
15341;DHT22;7770;52.158;5.372;2022-12-29T06:46:17;9.20;99.90
15341;DHT22;7770;52.158;5.372;2022-12-29T06:49:03;9.10;99.90
15341;DHT22;7770;52.158;5.372;2022-12-29T06:51:49;9.20;99.90
15341;DHT22;7770;52.158;5.372;2022-12-29T06:54:35;9.20;99.90
15341;DHT22;7770;52.158;5.372;2022-12-29T06:57:21;9.20;99.90
15341;DHT22;7770;52.158;5.372;2022-12-29T07:00:08;9.20;99.90
15341;DHT22;7770;52.158;5.372;2022-12-29T07:02:55;9.20;99.90
15341;DHT22;7770;52.158;5.372;2022-12-29T07:05:43;9.20;99.90
15341;DHT22;7770;52.158;5.372;2022-12-29T07:08:29;9.30;99.90
15341;DHT22;7770;52.158;5.372;2022-12-29T07:11:15;9.50;99.90
15341;DHT22;7770;52.158;5.372;2022-12-29T07:14:02;9.40;99.90
15341;DHT22;7770;52.158;5.372;2022-12-29T07:16:48;9.30;99.90
15341;DHT22;7770;52.158;5.372;2022-12-29T07:19:34;9.20;99.90
15341;DHT22;7770;52.158;5.372;2022-12-29T07:22:20;9.10;99.90
15341;DHT22;7770;52.158;5.372;2022-12-29T07:25:06;9.00;99.90
15341;DHT22;7770;52.158;5.372;2022-12-29T07:27:52;8.90;99.90
15341;DHT22;7770;52.158;5.372;2022-12-29T07:30:39;8.80;99.90
15341;DHT22;7770;52.158;5.372;2022-12-29T07:33:25;8.60;99.90
15341;DHT22;7770;52.158;5.372;2022-12-29T07:36:14;8.60;99.90
15341;DHT22;7770;52.158;5.372;2022-12-29T07:39:02;8.50;99.90
15341;DHT22;7770;52.158;5.372;2022-12-29T07:41:48;8.50;99.90
15341;DHT22;7770;52.158;5.372;2022-12-29T07:44:34;8.60;99.90
15341;DHT22;7770;52.158;5.372;2022-12-29T07:47:23;8.70;99.90
15341;DHT22;7770;52.158;5.372;2022-12-29T07:50:09;8.70;99.90
15341;DHT22;7770;52.158;5.372;2022-12-29T07:52:55;8.80;99.90
15341;DHT22;7770;52.158;5.372;2022-12-29T07:55:41;8.90;99.90
15341;DHT22;7770;52.158;5.372;2022-12-29T07:58:27;8.90;99.90
15341;DHT22;7770;52.158;5.372;2022-12-29T08:01:13;8.90;99.90
15341;DHT22;7770;52.158;5.372;2022-12-29T08:03:59;8.90;99.90
15341;DHT22;7770;52.158;5.372;2022-12-29T08:06:45;8.90;99.90
15341;DHT22;7770;52.158;5.372;2022-12-29T08:09:31;8.90;99.90
15341;DHT22;7770;52.158;5.372;2022-12-29T08:12:17;9.00;99.90
15341;DHT22;7770;52.158;5.372;2022-12-29T08:15:03;9.00;99.90
15341;DHT22;7770;52.158;5.372;2022-12-29T08:17:50;9.10;99.90
15341;DHT22;7770;52.158;5.372;2022-12-29T08:20:36;9.20;99.90
15341;DHT22;7770;52.158;5.372;2022-12-29T08:23:22;9.30;99.90
15341;DHT22;7770;52.158;5.372;2022-12-29T08:26:09;9.30;99.90
15341;DHT22;7770;52.158;5.372;2022-12-29T08:28:55;9.30;99.90
15341;DHT22;7770;52.158;5.372;2022-12-29T08:31:41;9.30;99.90
15341;DHT22;7770;52.158;5.372;2022-12-29T08:34:27;9.30;99.90
15341;DHT22;7770;52.158;5.372;2022-12-29T08:37:13;9.40;99.90
15341;DHT22;7770;52.158;5.372;2022-12-29T08:39:59;9.50;99.90
15341;DHT22;7770;52.158;5.372;2022-12-29T08:42:49;9.50;99.90
15341;DHT22;7770;52.158;5.372;2022-12-29T08:45:35;9.60;99.90
15341;DHT22;7770;52.158;5.372;2022-12-29T08:48:21;9.50;99.90
15341;DHT22;7770;52.158;5.372;2022-12-29T08:51:08;9.60;99.90
15341;DHT22;7770;52.158;5.372;2022-12-29T08:53:54;9.50;99.90
15341;DHT22;7770;52.158;5.372;2022-12-29T08:56:40;9.50;99.90
15341;DHT22;7770;52.158;5.372;2022-12-29T08:59:26;9.40;99.90
15341;DHT22;7770;52.158;5.372;2022-12-29T09:02:12;9.50;99.90
15341;DHT22;7770;52.158;5.372;2022-12-29T09:04:58;9.50;99.90
15341;DHT22;7770;52.158;5.372;2022-12-29T09:07:45;9.50;99.90
15341;DHT22;7770;52.158;5.372;2022-12-29T09:10:31;9.50;99.90
15341;DHT22;7770;52.158;5.372;2022-12-29T09:13:18;9.50;99.90
15341;DHT22;7770;52.158;5.372;2022-12-29T09:16:04;9.60;99.90
15341;DHT22;7770;52.158;5.372;2022-12-29T09:18:51;9.70;99.90
15341;DHT22;7770;52.158;5.372;2022-12-29T09:21:37;9.70;99.90
15341;DHT22;7770;52.158;5.372;2022-12-29T09:24:23;9.60;99.90
15341;DHT22;7770;52.158;5.372;2022-12-29T09:27:09;9.60;99.90
15341;DHT22;7770;52.158;5.372;2022-12-29T09:29:55;9.60;99.90
15341;DHT22;7770;52.158;5.372;2022-12-29T09:32:41;9.50;99.90
15341;DHT22;7770;52.158;5.372;2022-12-29T09:35:27;9.50;99.90
15341;DHT22;7770;52.158;5.372;2022-12-29T09:38:13;9.30;99.90
15341;DHT22;7770;52.158;5.372;2022-12-29T09:41:14;9.20;99.90
15341;DHT22;7770;52.158;5.372;2022-12-29T09:44:16;9.10;99.90
15341;DHT22;7770;52.158;5.372;2022-12-29T09:47:11;9.10;99.90
15341;DHT22;7770;52.158;5.372;2022-12-29T09:50:09;9.10;99.90
15341;DHT22;7770;52.158;5.372;2022-12-29T09:53:15;9.00;99.90
15341;DHT22;7770;52.158;5.372;2022-12-29T09:56:15;8.90;99.90
15341;DHT22;7770;52.158;5.372;2022-12-29T09:59:12;9.00;99.90
15341;DHT22;7770;52.158;5.372;2022-12-29T10:02:32;9.00;99.90
15341;DHT22;7770;52.158;5.372;2022-12-29T10:05:44;9.00;99.90
15341;DHT22;7770;52.158;5.372;2022-12-29T10:08:46;9.00;99.90
15341;DHT22;7770;52.158;5.372;2022-12-29T10:11:51;9.10;99.90
15341;DHT22;7770;52.158;5.372;2022-12-29T10:15:30;9.00;99.90
15341;DHT22;7770;52.158;5.372;2022-12-29T10:24:55;9.00;99.90
15341;DHT22;7770;52.158;5.372;2022-12-29T10:27:49;9.00;99.90
15341;DHT22;7770;52.158;5.372;2022-12-29T10:30:36;9.00;99.90
15341;DHT22;7770;52.158;5.372;2022-12-29T10:33:26;9.10;99.90
15341;DHT22;7770;52.158;5.372;2022-12-29T10:36:40;9.10;99.90
15341;DHT22;7770;52.158;5.372;2022-12-29T10:39:37;9.10;99.90
15341;DHT22;7770;52.158;5.372;2022-12-29T10:42:39;9.20;99.90
15341;DHT22;7770;52.158;5.372;2022-12-29T10:45:30;9.30;99.90
15341;DHT22;7770;52.158;5.372;2022-12-29T10:48:22;9.30;99.90
15341;DHT22;7770;52.158;5.372;2022-12-29T10:51:10;9.20;99.90
15341;DHT22;7770;52.158;5.372;2022-12-29T10:57:34;9.30;99.90
15341;DHT22;7770;52.158;5.372;2022-12-29T11:00:22;9.40;99.90
15341;DHT22;7770;52.158;5.372;2022-12-29T11:06:25;9.50;99.90
15341;DHT22;7770;52.158;5.372;2022-12-29T11:09:21;9.50;99.90
15341;DHT22;7770;52.158;5.372;2022-12-29T11:15:15;9.60;99.90
15341;DHT22;7770;52.158;5.372;2022-12-29T11:18:01;9.60;99.90
15341;DHT22;7770;52.158;5.372;2022-12-29T11:20:49;9.50;99.90
15341;DHT22;7770;52.158;5.372;2022-12-29T11:23:41;9.50;99.90
15341;DHT22;7770;52.158;5.372;2022-12-29T11:26:28;9.50;99.90
15341;DHT22;7770;52.158;5.372;2022-12-29T11:32:11;9.70;99.90
15341;DHT22;7770;52.158;5.372;2022-12-29T11:34:59;10.00;99.90
15341;DHT22;7770;52.158;5.372;2022-12-29T11:37:55;10.50;99.90
15341;DHT22;7770;52.158;5.372;2022-12-29T11:40:42;10.50;99.90
15341;DHT22;7770;52.158;5.372;2022-12-29T11:43:34;10.40;99.90
15341;DHT22;7770;52.158;5.372;2022-12-29T11:49:20;12.00;99.90
15341;DHT22;7770;52.158;5.372;2022-12-29T11:52:08;12.90;99.90
15341;DHT22;7770;52.158;5.372;2022-12-29T11:54:55;12.70;99.90
15341;DHT22;7770;52.158;5.372;2022-12-29T11:57:43;12.80;99.90
15341;DHT22;7770;52.158;5.372;2022-12-29T12:00:32;12.10;99.90
15341;DHT22;7770;52.158;5.372;2022-12-29T12:03:23;12.30;99.90
15341;DHT22;7770;52.158;5.372;2022-12-29T12:06:14;12.30;99.90
15341;DHT22;7770;52.158;5.372;2022-12-29T12:09:06;11.80;99.90
15341;DHT22;7770;52.158;5.372;2022-12-29T12:11:57;10.70;99.90
15341;DHT22;7770;52.158;5.372;2022-12-29T12:14:54;10.20;99.90
15341;DHT22;7770;52.158;5.372;2022-12-29T12:21:08;9.90;99.90
15341;DHT22;7770;52.158;5.372;2022-12-29T12:27:59;9.80;99.90
15341;DHT22;7770;52.158;5.372;2022-12-29T12:30:30;9.80;99.90
15341;DHT22;7770;52.158;5.372;2022-12-29T12:33:33;9.80;99.90
15341;DHT22;7770;52.158;5.372;2022-12-29T12:40:04;9.70;99.90
15341;DHT22;7770;52.158;5.372;2022-12-29T12:50:06;9.50;99.90
15341;DHT22;7770;52.158;5.372;2022-12-29T12:53:13;9.50;99.90
15341;DHT22;7770;52.158;5.372;2022-12-29T12:59:36;9.70;99.90
15341;DHT22;7770;52.158;5.372;2022-12-29T13:02:34;9.80;99.90
15341;DHT22;7770;52.158;5.372;2022-12-29T13:05:50;9.90;99.90
15341;DHT22;7770;52.158;5.372;2022-12-29T13:12:14;10.20;99.90
15341;DHT22;7770;52.158;5.372;2022-12-29T13:15:21;10.10;99.90
15341;DHT22;7770;52.158;5.372;2022-12-29T13:34:21;9.90;99.90
15341;DHT22;7770;52.158;5.372;2022-12-29T13:37:18;9.90;99.90
15341;DHT22;7770;52.158;5.372;2022-12-29T13:40:15;9.80;99.90
15341;DHT22;7770;52.158;5.372;2022-12-29T13:43:03;9.90;99.90
15341;DHT22;7770;52.158;5.372;2022-12-29T13:46:10;9.90;99.90
15341;DHT22;7770;52.158;5.372;2022-12-29T13:49:04;9.80;99.90
15341;DHT22;7770;52.158;5.372;2022-12-29T13:52:17;9.90;99.90
15341;DHT22;7770;52.158;5.372;2022-12-29T13:55:53;9.80;99.90
15341;DHT22;7770;52.158;5.372;2022-12-29T13:58:54;9.80;99.90
15341;DHT22;7770;52.158;5.372;2022-12-29T14:01:58;9.70;99.90
15341;DHT22;7770;52.158;5.372;2022-12-29T14:08:16;9.70;99.90
15341;DHT22;7770;52.158;5.372;2022-12-29T14:11:09;9.60;99.90
15341;DHT22;7770;52.158;5.372;2022-12-29T14:13:57;9.60;99.90
15341;DHT22;7770;52.158;5.372;2022-12-29T14:16:43;9.40;99.90
15341;DHT22;7770;52.158;5.372;2022-12-29T14:19:33;9.30;99.90
15341;DHT22;7770;52.158;5.372;2022-12-29T14:22:26;9.10;99.90
15341;DHT22;7770;52.158;5.372;2022-12-29T14:25:52;9.00;99.90
15341;DHT22;7770;52.158;5.372;2022-12-29T14:28:47;9.00;99.90
15341;DHT22;7770;52.158;5.372;2022-12-29T14:31:34;9.00;99.90
15341;DHT22;7770;52.158;5.372;2022-12-29T14:34:28;8.90;99.90
15341;DHT22;7770;52.158;5.372;2022-12-29T14:37:25;8.80;99.90
15341;DHT22;7770;52.158;5.372;2022-12-29T14:40:25;8.80;99.90
15341;DHT22;7770;52.158;5.372;2022-12-29T14:43:26;8.80;99.90
15341;DHT22;7770;52.158;5.372;2022-12-29T14:46:12;8.70;99.90
15341;DHT22;7770;52.158;5.372;2022-12-29T14:48:59;8.70;99.90
15341;DHT22;7770;52.158;5.372;2022-12-29T14:51:47;8.70;99.90
15341;DHT22;7770;52.158;5.372;2022-12-29T15:00:48;8.60;99.90
15341;DHT22;7770;52.158;5.372;2022-12-29T15:03:49;8.60;99.90
15341;DHT22;7770;52.158;5.372;2022-12-29T15:06:37;8.60;99.90
15341;DHT22;7770;52.158;5.372;2022-12-29T15:09:34;8.60;99.90
15341;DHT22;7770;52.158;5.372;2022-12-29T15:15:27;8.60;99.90
15341;DHT22;7770;52.158;5.372;2022-12-29T15:18:28;8.60;99.90
15341;DHT22;7770;52.158;5.372;2022-12-29T15:21:16;8.60;99.90
15341;DHT22;7770;52.158;5.372;2022-12-29T15:24:03;8.60;99.90
15341;DHT22;7770;52.158;5.372;2022-12-29T15:26:51;8.60;99.90
15341;DHT22;7770;52.158;5.372;2022-12-29T15:29:41;8.70;99.90
15341;DHT22;7770;52.158;5.372;2022-12-29T15:32:38;8.70;99.90
15341;DHT22;7770;52.158;5.372;2022-12-29T15:35:33;8.70;99.90
15341;DHT22;7770;52.158;5.372;2022-12-29T15:38:27;8.70;99.90
15341;DHT22;7770;52.158;5.372;2022-12-29T15:41:23;8.70;99.90
15341;DHT22;7770;52.158;5.372;2022-12-29T15:44:21;8.70;99.90
15341;DHT22;7770;52.158;5.372;2022-12-29T15:47:21;8.80;99.90
15341;DHT22;7770;52.158;5.372;2022-12-29T15:50:26;8.80;99.90
15341;DHT22;7770;52.158;5.372;2022-12-29T15:53:42;8.80;99.90
15341;DHT22;7770;52.158;5.372;2022-12-29T15:56:33;8.80;99.90
15341;DHT22;7770;52.158;5.372;2022-12-29T15:59:27;8.70;99.90
15341;DHT22;7770;52.158;5.372;2022-12-29T16:02:15;8.80;99.90
15341;DHT22;7770;52.158;5.372;2022-12-29T16:05:01;8.80;99.90
15341;DHT22;7770;52.158;5.372;2022-12-29T16:07:58;8.80;99.90
15341;DHT22;7770;52.158;5.372;2022-12-29T16:10:45;8.80;99.90
15341;DHT22;7770;52.158;5.372;2022-12-29T16:13:34;8.90;99.90
15341;DHT22;7770;52.158;5.372;2022-12-29T16:16:29;8.90;99.90
15341;DHT22;7770;52.158;5.372;2022-12-29T16:19:29;8.80;99.90
15341;DHT22;7770;52.158;5.372;2022-12-29T16:22:36;8.90;99.90
15341;DHT22;7770;52.158;5.372;2022-12-29T16:25:32;8.80;99.90
15341;DHT22;7770;52.158;5.372;2022-12-29T16:28:23;8.80;99.90
15341;DHT22;7770;52.158;5.372;2022-12-29T16:31:33;8.80;99.90
15341;DHT22;7770;52.158;5.372;2022-12-29T16:34:22;8.70;99.90
15341;DHT22;7770;52.158;5.372;2022-12-29T16:37:28;8.70;99.90
15341;DHT22;7770;52.158;5.372;2022-12-29T16:43:27;8.60;99.90
15341;DHT22;7770;52.158;5.372;2022-12-29T16:46:25;8.70;99.90
15341;DHT22;7770;52.158;5.372;2022-12-29T16:49:16;8.60;99.90
15341;DHT22;7770;52.158;5.372;2022-12-29T16:52:12;8.50;99.90
15341;DHT22;7770;52.158;5.372;2022-12-29T16:55:00;8.40;99.90
15341;DHT22;7770;52.158;5.372;2022-12-29T16:57:48;8.40;99.90
15341;DHT22;7770;52.158;5.372;2022-12-29T17:00:36;8.30;99.90
15341;DHT22;7770;52.158;5.372;2022-12-29T17:03:31;8.30;99.90
15341;DHT22;7770;52.158;5.372;2022-12-29T17:06:21;8.20;99.90
15341;DHT22;7770;52.158;5.372;2022-12-29T17:09:21;8.10;99.90
15341;DHT22;7770;52.158;5.372;2022-12-29T17:12:09;8.10;99.90
15341;DHT22;7770;52.158;5.372;2022-12-29T17:15:06;8.00;99.90
15341;DHT22;7770;52.158;5.372;2022-12-29T17:17:59;8.00;99.90
15341;DHT22;7770;52.158;5.372;2022-12-29T17:20:45;8.00;99.90
15341;DHT22;7770;52.158;5.372;2022-12-29T17:23:32;8.00;99.90
15341;DHT22;7770;52.158;5.372;2022-12-29T17:26:19;7.90;99.90
15341;DHT22;7770;52.158;5.372;2022-12-29T17:29:05;7.90;99.90
15341;DHT22;7770;52.158;5.372;2022-12-29T17:31:51;8.00;99.90
15341;DHT22;7770;52.158;5.372;2022-12-29T17:34:39;8.00;99.90
15341;DHT22;7770;52.158;5.372;2022-12-29T17:40:27;8.00;99.90
15341;DHT22;7770;52.158;5.372;2022-12-29T17:43:16;7.90;99.90
15341;DHT22;7770;52.158;5.372;2022-12-29T17:46:05;7.80;99.90
15341;DHT22;7770;52.158;5.372;2022-12-29T17:48:52;7.80;99.90
15341;DHT22;7770;52.158;5.372;2022-12-29T17:51:38;7.80;99.90
15341;DHT22;7770;52.158;5.372;2022-12-29T17:54:25;7.70;99.90
15341;DHT22;7770;52.158;5.372;2022-12-29T17:57:16;7.70;99.90
15341;DHT22;7770;52.158;5.372;2022-12-29T18:00:02;7.60;99.90
15341;DHT22;7770;52.158;5.372;2022-12-29T18:02:49;7.60;99.90
15341;DHT22;7770;52.158;5.372;2022-12-29T18:05:35;7.60;99.90
15341;DHT22;7770;52.158;5.372;2022-12-29T18:08:21;7.60;99.90
15341;DHT22;7770;52.158;5.372;2022-12-29T18:11:38;7.60;99.90
15341;DHT22;7770;52.158;5.372;2022-12-29T18:14:28;7.60;99.90
15341;DHT22;7770;52.158;5.372;2022-12-29T18:17:14;7.50;99.90
15341;DHT22;7770;52.158;5.372;2022-12-29T18:20:00;7.60;99.90
15341;DHT22;7770;52.158;5.372;2022-12-29T18:22:46;7.60;99.90
15341;DHT22;7770;52.158;5.372;2022-12-29T18:25:41;7.50;99.90
15341;DHT22;7770;52.158;5.372;2022-12-29T18:28:44;7.40;99.90
15341;DHT22;7770;52.158;5.372;2022-12-29T18:31:33;7.40;99.90
15341;DHT22;7770;52.158;5.372;2022-12-29T18:34:21;7.40;99.90
15341;DHT22;7770;52.158;5.372;2022-12-29T18:37:08;7.40;99.90
15341;DHT22;7770;52.158;5.372;2022-12-29T18:39:55;7.40;99.90
15341;DHT22;7770;52.158;5.372;2022-12-29T18:42:41;7.30;99.90
15341;DHT22;7770;52.158;5.372;2022-12-29T18:45:30;7.40;99.90
15341;DHT22;7770;52.158;5.372;2022-12-29T18:48:20;7.30;99.90
15341;DHT22;7770;52.158;5.372;2022-12-29T18:51:17;7.40;99.90
15341;DHT22;7770;52.158;5.372;2022-12-29T18:54:04;7.40;99.90
15341;DHT22;7770;52.158;5.372;2022-12-29T18:56:50;7.40;99.90
15341;DHT22;7770;52.158;5.372;2022-12-29T18:59:36;7.40;99.90
15341;DHT22;7770;52.158;5.372;2022-12-29T19:02:22;7.40;99.90
15341;DHT22;7770;52.158;5.372;2022-12-29T19:05:20;7.40;99.90
15341;DHT22;7770;52.158;5.372;2022-12-29T19:08:12;7.40;99.90
15341;DHT22;7770;52.158;5.372;2022-12-29T19:10:58;7.50;99.90
15341;DHT22;7770;52.158;5.372;2022-12-29T19:13:44;7.50;99.90
15341;DHT22;7770;52.158;5.372;2022-12-29T19:16:30;7.40;99.90
15341;DHT22;7770;52.158;5.372;2022-12-29T19:19:17;7.40;99.90
15341;DHT22;7770;52.158;5.372;2022-12-29T19:22:03;7.40;99.90
15341;DHT22;7770;52.158;5.372;2022-12-29T19:24:49;7.50;99.90
15341;DHT22;7770;52.158;5.372;2022-12-29T19:27:35;7.50;99.90
15341;DHT22;7770;52.158;5.372;2022-12-29T19:30:21;7.50;99.90
15341;DHT22;7770;52.158;5.372;2022-12-29T19:33:09;7.50;99.90
15341;DHT22;7770;52.158;5.372;2022-12-29T19:36:00;7.50;99.90
15341;DHT22;7770;52.158;5.372;2022-12-29T19:38:46;7.40;99.90
15341;DHT22;7770;52.158;5.372;2022-12-29T19:41:34;7.40;99.90
15341;DHT22;7770;52.158;5.372;2022-12-29T19:44:20;7.40;99.90
15341;DHT22;7770;52.158;5.372;2022-12-29T19:47:06;7.40;99.90
15341;DHT22;7770;52.158;5.372;2022-12-29T19:49:52;7.40;99.90
15341;DHT22;7770;52.158;5.372;2022-12-29T19:52:38;7.30;99.90
15341;DHT22;7770;52.158;5.372;2022-12-29T19:55:24;7.30;99.90
15341;DHT22;7770;52.158;5.372;2022-12-29T19:58:10;7.30;99.90
15341;DHT22;7770;52.158;5.372;2022-12-29T20:01:12;7.30;99.90
15341;DHT22;7770;52.158;5.372;2022-12-29T20:04:00;7.30;99.90
15341;DHT22;7770;52.158;5.372;2022-12-29T20:06:47;7.30;99.90
15341;DHT22;7770;52.158;5.372;2022-12-29T20:09:33;7.20;99.90
15341;DHT22;7770;52.158;5.372;2022-12-29T20:12:19;7.20;99.90
15341;DHT22;7770;52.158;5.372;2022-12-29T20:15:08;7.10;99.90
15341;DHT22;7770;52.158;5.372;2022-12-29T20:17:55;7.10;99.90